Time;durP1;ratioP1;P1;durP2;ratioP2;P2;SDS_P1;SDS_P2;PMS_P1;PMS_P2;Temp;Humidity;BMP_temperature;BMP_pressure;BME280_temperature;BME280_humidity;BME280_pressure;Samples;Min_cycle;Max_cycle;Signal;HPM_P1;HPM_P2
2022/03/20 00:00:44;;;;;;;7.80;4.35;;;;;;;24.01;44.50;100331.34;4205988;28;20040;-69
2022/03/20 00:02:45;;;;;;;6.22;3.90;;;;;;;24.01;44.67;100333.31;4205529;28;20040;-69
2022/03/20 00:04:47;;;;;;;7.72;3.95;;;;;;;24.00;44.74;100337.22;4205950;28;20036;-69
2022/03/20 00:06:48;;;;;;;6.47;3.70;;;;;;;24.01;44.44;100331.34;4207375;28;20040;-70
2022/03/20 00:08:52;;;;;;;4.72;3.90;;;;;;;24.01;44.47;100341.69;4208640;28;20040;-69
2022/03/20 00:10:57;;;;;;;7.97;3.70;;;;;;;24.01;44.33;100341.69;4208636;28;20430;-69
2022/03/20 00:12:58;;;;;;;7.15;3.85;;;;;;;24.02;44.80;100343.34;4209338;28;20044;-69
2022/03/20 00:15:03;;;;;;;4.68;3.38;;;;;;;24.01;44.57;100341.69;4206856;28;20090;-70
2022/03/20 00:17:06;;;;;;;6.53;3.88;;;;;;;24.02;44.73;100348.94;4208902;28;20075;-69
2022/03/20 00:19:07;;;;;;;7.22;3.80;;;;;;;24.01;44.61;100350.09;4193365;28;20041;-70
2022/03/20 00:21:10;;;;;;;8.75;4.07;;;;;;;24.00;44.58;100354.81;4210594;28;20058;-69
2022/03/20 00:23:12;;;;;;;6.53;4.15;;;;;;;24.00;44.31;100349.22;4209661;28;20114;-69
2022/03/20 00:25:14;;;;;;;6.15;4.35;;;;;;;23.91;44.36;100336.34;4209002;28;20024;-70
2022/03/20 00:27:18;;;;;;;5.97;3.90;;;;;;;24.00;44.31;100345.63;4206816;28;20028;-70
2022/03/20 00:29:20;;;;;;;5.65;3.60;;;;;;;24.00;44.69;100340.84;4211390;28;20040;-68
2022/03/20 00:31:22;;;;;;;6.90;4.32;;;;;;;23.98;44.74;100336.72;4209030;28;20037;-70
2022/03/20 00:33:25;;;;;;;5.65;3.95;;;;;;;23.96;44.41;100337.06;4210240;28;20119;-69
2022/03/20 00:35:27;;;;;;;5.47;4.47;;;;;;;23.97;44.70;100335.09;4209416;28;20032;-69
2022/03/20 00:37:29;;;;;;;5.72;4.32;;;;;;;24.00;44.54;100346.44;4206727;28;20040;-69
2022/03/20 00:39:30;;;;;;;7.72;4.28;;;;;;;23.99;44.82;100349.56;4207659;28;20040;-69
2022/03/20 00:41:32;;;;;;;6.95;4.63;;;;;;;24.00;44.67;100354.00;4186129;28;20539;-69
2022/03/20 00:43:33;;;;;;;7.53;4.50;;;;;;;23.99;44.46;100349.56;4204460;28;20545;-68
2022/03/20 00:45:35;;;;;;;6.38;4.43;;;;;;;24.00;44.66;100351.19;4202980;28;20173;-69
2022/03/20 00:47:36;;;;;;;5.85;4.82;;;;;;;23.98;44.90;100354.31;4203070;28;20036;-69
2022/03/20 00:49:38;;;;;;;5.10;4.07;;;;;;;23.97;44.72;100358.25;4195000;28;20044;-68
2022/03/20 00:51:39;;;;;;;6.90;4.70;;;;;;;23.99;44.52;100355.16;4199449;28;20086;-69
2022/03/20 00:53:41;;;;;;;8.10;4.30;;;;;;;24.00;44.52;100354.81;4203453;28;20082;-69
2022/03/20 00:55:42;;;;;;;4.72;3.97;;;;;;;24.01;44.92;100369.66;4187214;28;20041;-69
2022/03/20 00:57:43;;;;;;;8.65;4.35;;;;;;;23.99;44.71;100383.09;4201213;28;20040;-69
2022/03/20 00:59:45;;;;;;;8.65;4.60;;;;;;;24.00;44.44;100418.28;4202113;28;20090;-69
2022/03/20 01:01:47;;;;;;;6.25;4.50;;;;;;;23.99;44.88;100484.53;4201395;28;20558;-69
2022/03/20 01:03:48;;;;;;;9.13;4.90;;;;;;;23.88;44.66;100494.28;4200839;28;20040;-69
2022/03/20 01:05:50;;;;;;;6.50;4.68;;;;;;;23.98;44.50;100532.34;4200899;28;20040;-68
2022/03/20 01:07:51;;;;;;;7.00;4.40;;;;;;;24.00;44.33;100580.38;4200326;28;20036;-69
2022/03/20 01:09:53;;;;;;;6.13;3.88;;;;;;;23.99;44.30;100629.03;4198267;28;20569;-70
2022/03/20 01:11:55;;;;;;;7.28;4.20;;;;;;;24.00;44.50;100675.41;4198390;28;20097;-70
2022/03/20 01:13:59;;;;;;;6.10;3.40;;;;;;;23.98;44.50;100628.22;4198463;28;20480;-71
2022/03/20 01:16:01;;;;;;;6.25;3.30;;;;;;;24.01;44.73;100615.59;4182062;28;20627;-70
2022/03/20 01:18:02;;;;;;;3.88;3.00;;;;;;;23.99;45.28;100603.88;4198649;28;20101;-70
2022/03/20 01:20:09;;;;;;;9.23;3.75;;;;;;;24.00;44.99;100594.34;4199941;28;20025;-69
2022/03/20 01:22:13;;;;;;;7.38;3.95;;;;;;;23.95;45.02;100561.75;4199966;28;20049;-72
2022/03/20 01:24:14;;;;;;;5.33;3.43;;;;;;;23.99;45.06;100562.78;4199963;28;20086;-70
2022/03/20 01:26:15;;;;;;;6.38;3.45;;;;;;;23.99;44.77;100556.38;4199853;28;20339;-70
2022/03/20 01:28:18;;;;;;;8.35;3.97;;;;;;;23.99;44.96;100542.41;4199295;28;20037;-70
2022/03/20 01:30:21;;;;;;;5.72;3.55;;;;;;;23.99;44.83;100545.19;4200561;28;20113;-70
2022/03/20 01:32:22;;;;;;;4.50;3.38;;;;;;;23.94;45.05;100536.91;4197176;28;20032;-70
2022/03/20 01:34:25;;;;;;;6.78;3.30;;;;;;;23.97;45.28;100541.88;4202218;28;20032;-69
2022/03/20 01:36:27;;;;;;;4.10;3.50;;;;;;;23.98;45.07;100549.13;4199765;28;20032;-70
2022/03/20 01:38:31;;;;;;;4.82;3.15;;;;;;;23.97;44.77;100569.84;4201221;28;20036;-70
2022/03/20 01:40:38;;;;;;;5.90;3.57;;;;;;;23.95;45.17;100556.16;4202416;28;20082;-70
2022/03/20 01:42:39;;;;;;;6.25;3.30;;;;;;;23.98;44.96;100555.53;4185817;28;20021;-70
2022/03/20 01:44:41;;;;;;;6.13;4.32;;;;;;;23.99;44.81;100561.97;4183733;28;20041;-70
2022/03/20 01:46:43;;;;;;;4.15;3.22;;;;;;;23.97;45.06;100534.34;4203247;28;20074;-71
2022/03/20 01:48:54;;;;;;;5.20;3.22;;;;;;;23.96;44.65;100523.44;4184624;28;20135;-68
2022/03/20 01:50:55;;;;;;;5.80;3.42;;;;;;;23.98;45.02;100532.34;4200673;28;20475;-69
2022/03/20 01:52:57;;;;;;;6.95;3.20;;;;;;;23.96;44.91;100524.31;4199871;28;20028;-69
2022/03/20 01:54:59;;;;;;;6.55;3.15;;;;;;;23.99;45.11;100522.84;4200086;28;20040;-70
2022/03/20 01:57:01;;;;;;;5.03;3.50;;;;;;;23.94;44.96;100517.34;4198542;28;20054;-70
2022/03/20 01:59:04;;;;;;;3.03;2.72;;;;;;;23.96;44.99;100510.31;4200015;28;20032;-69
2022/03/20 02:01:09;;;;;;;4.43;3.13;;;;;;;23.94;44.94;100503.38;4201387;28;20055;-69
2022/03/20 02:03:10;;;;;;;5.45;3.25;;;;;;;23.97;44.96;100527.91;4200178;28;20094;-70
2022/03/20 02:05:13;;;;;;;4.50;3.10;;;;;;;23.96;44.87;100546.66;4199722;28;20048;-70
2022/03/20 02:07:18;;;;;;;4.50;2.90;;;;;;;23.97;44.79;100567.88;4200583;28;20021;-69
2022/03/20 02:09:19;;;;;;;;;;;;;;;23.95;44.35;100555.34;4186335;28;20033;-69
2022/03/20 02:11:22;;;;;;;3.58;3.10;;;;;;;24.01;44.90;100510.22;4195193;28;19919;-69
2022/03/20 02:13:26;;;;;;;5.70;3.22;;;;;;;24.01;45.05;100509.38;4215590;28;20071;-70
2022/03/20 02:15:28;;;;;;;3.53;2.75;;;;;;;24.00;44.95;100507.72;4217693;28;20040;-70
2022/03/20 02:17:34;;;;;;;6.18;3.22;;;;;;;23.99;45.07;100520.03;4199840;28;20033;-70
2022/03/20 02:19:37;;;;;;;5.82;3.03;;;;;;;23.99;45.12;100529.25;4212210;28;20066;-68
2022/03/20 02:21:46;;;;;;;4.25;2.95;;;;;;;23.99;44.77;100515.28;4193644;28;20087;-68
2022/03/20 02:23:50;;;;;;;4.93;2.92;;;;;;;24.00;45.30;100499.31;4211193;28;20044;-70
2022/03/20 02:25:52;;;;;;;5.53;3.22;;;;;;;23.96;45.10;100506.69;4212173;28;20036;-68
2022/03/20 02:27:54;;;;;;;4.40;2.80;;;;;;;23.97;45.01;100503.59;4212673;28;20025;-69
2022/03/20 02:30:01;;;;;;;3.58;2.80;;;;;;;23.99;44.69;100508.84;4212922;28;20094;-68
2022/03/20 02:32:04;;;;;;;3.80;2.95;;;;;;;23.99;44.84;100512.47;4211580;28;20040;-69
2022/03/20 02:34:08;;;;;;;2.80;2.50;;;;;;;23.97;45.00;100498.00;4194025;28;20059;-67
2022/03/20 02:36:12;;;;;;;4.70;3.13;;;;;;;24.00;45.05;100507.72;4209153;28;20032;-69
2022/03/20 02:38:14;;;;;;;4.40;2.72;;;;;;;23.99;44.98;100511.66;4206628;28;20037;-69
2022/03/20 02:40:18;;;;;;;4.70;2.80;;;;;;;23.99;44.98;100517.25;4193252;28;20067;-68
2022/03/20 02:42:26;;;;;;;4.22;3.10;;;;;;;23.99;45.00;100512.47;4193822;28;20041;-67
2022/03/20 02:44:48;;;;;;;4.38;2.85;;;;;;;23.98;44.67;100523.97;4209594;28;20036;-69
2022/03/20 02:46:53;;;;;;;4.35;2.50;;;;;;;23.99;45.05;100523.66;4211332;28;20066;-69
2022/03/20 02:48:55;;;;;;;9.25;3.17;;;;;;;23.99;44.75;100517.25;4194477;28;20064;-69
2022/03/20 02:50:57;;;;;;;4.03;3.00;;;;;;;23.99;44.97;100522.84;4212046;28;20044;-70
2022/03/20 02:53:14;;;;;;;5.22;3.00;;;;;;;24.00;44.91;100527.28;4215948;28;20041;-69
2022/03/20 02:55:23;;;;;;;3.35;2.58;;;;;;;23.99;44.77;100523.66;4214082;28;20098;-68
2022/03/20 02:57:29;;;;;;;3.65;2.72;;;;;;;23.99;45.12;100529.25;4191781;28;20083;-68
2022/03/20 02:59:32;;;;;;;4.55;3.00;;;;;;;23.99;44.75;100523.66;4194925;28;20041;-69
2022/03/20 03:01:33;;;;;;;3.95;2.92;;;;;;;24.01;45.26;100520.56;4193390;28;20087;-69
2022/03/20 03:03:40;;;;;;;4.95;2.80;;;;;;;24.00;44.73;100527.28;4214723;28;20036;-70
2022/03/20 03:05:58;;;;;;;4.60;2.83;;;;;;;23.98;45.05;100532.34;4192644;28;20041;-67
2022/03/20 03:12:51;;;;;;;5.22;3.13;;;;;;;23.99;44.49;100545.19;4220179;28;20063;-69
2022/03/20 03:17:14;;;;;;;4.43;2.90;;;;;;;24.00;44.88;100558.03;4217020;28;20063;-69
2022/03/20 03:19:21;;;;;;;4.95;2.65;;;;;;;23.98;45.05;100563.09;4215827;28;20063;-69
2022/03/20 03:21:24;;;;;;;5.07;3.47;;;;;;;23.99;44.90;100560.00;4216355;28;20062;-70
2022/03/20 03:23:30;;;;;;;4.10;2.50;;;;;;;23.99;44.56;100557.19;4199596;28;20037;-68
2022/03/20 03:25:33;;;;;;;4.85;2.53;;;;;;;23.98;45.07;100549.94;4213867;28;20438;-68
2022/03/20 03:27:35;;;;;;;3.45;2.80;;;;;;;23.99;45.08;100539.59;4216055;28;20071;-69
2022/03/20 03:29:37;;;;;;;4.47;2.85;;;;;;;23.98;44.77;100538.78;4197559;28;20041;-68
2022/03/20 03:31:39;;;;;;;3.53;2.50;;;;;;;23.98;44.84;100543.53;4201362;28;20072;-69
2022/03/20 03:36:05;;;;;;;3.95;2.70;;;;;;;23.99;44.67;100557.19;4217287;28;20083;-67
2022/03/20 03:38:11;;;;;;;4.13;3.10;;;;;;;23.95;45.18;100550.56;4213541;28;20074;-68
2022/03/20 03:40:14;;;;;;;4.85;3.22;;;;;;;23.98;45.04;100551.94;4197704;28;20041;-67
2022/03/20 03:42:15;;;;;;;5.68;2.40;;;;;;;23.98;44.86;100552.75;4195616;28;20033;-68
2022/03/20 03:44:18;;;;;;;4.22;2.72;;;;;;;23.98;44.80;100546.34;4195681;28;20555;-70
2022/03/20 03:46:20;;;;;;;3.75;3.05;;;;;;;23.98;44.65;100543.53;4208706;28;20067;-69
2022/03/20 03:48:22;;;;;;;2.88;2.33;;;;;;;23.96;44.75;100541.06;4215205;28;20033;-68
2022/03/20 03:50:25;;;;;;;2.90;2.60;;;;;;;23.95;44.65;100535.78;4212995;28;20040;-68
2022/03/20 03:52:29;;;;;;;3.05;2.35;;;;;;;23.95;44.94;100544.97;4194562;28;20041;-70
2022/03/20 03:54:30;;;;;;;8.82;3.92;;;;;;;23.95;44.96;100536.59;4203138;28;20032;-69
2022/03/20 03:56:34;;;;;;;4.78;2.70;;;;;;;23.91;45.00;100545.91;4194874;28;20098;-70
2022/03/20 03:58:35;;;;;;;4.00;2.67;;;;;;;23.95;44.88;100547.78;4199662;28;20427;-70
2022/03/20 04:00:37;;;;;;;5.80;2.70;;;;;;;23.94;44.87;100548.09;4200182;28;20098;-70
2022/03/20 04:02:41;;;;;;;3.40;2.20;;;;;;;23.93;44.81;100552.03;4198955;28;20041;-70
2022/03/20 04:04:46;;;;;;;4.13;2.60;;;;;;;23.93;44.65;100546.44;4199642;28;20037;-70
2022/03/20 04:06:48;;;;;;;4.68;2.42;;;;;;;23.93;44.86;100549.25;4199786;28;20063;-69
2022/03/20 04:08:49;;;;;;;4.25;2.30;;;;;;;23.91;44.60;100554.28;4198952;28;20082;-69
2022/03/20 04:10:51;;;;;;;3.25;2.55;;;;;;;23.92;44.80;100561.56;4203139;28;20029;-69
2022/03/20 04:12:52;;;;;;;4.53;2.60;;;;;;;23.91;44.76;100565.47;4204441;28;20088;-70
2022/03/20 04:14:54;;;;;;;15.95;3.05;;;;;;;23.90;44.96;100561.84;4173363;28;20148;-71
2022/03/20 04:16:58;;;;;;;21.90;3.53;;;;;;;23.91;44.60;100585.03;4167646;28;20485;-71
2022/03/20 04:18:59;;;;;;;17.27;5.30;;;;;;;23.91;44.45;100585.03;4198190;28;20082;-71
2022/03/20 04:21:01;;;;;;;251.30;163.75;;;;;;;23.91;44.79;100588.66;4177451;28;20095;-69
2022/03/20 04:25:26;;;;;;;74.22;48.20;;;;;;;23.90;44.57;100588.97;4204510;28;20422;-69
2022/03/20 04:27:28;;;;;;;93.05;56.45;;;;;;;23.91;44.58;100588.66;4200127;28;20106;-71
2022/03/20 04:29:32;;;;;;;69.45;45.80;;;;;;;23.91;44.19;100583.06;4201796;28;20040;-70
2022/03/20 04:31:33;;;;;;;72.60;46.90;;;;;;;23.92;44.31;100586.72;4201207;28;20097;-70
2022/03/20 04:33:35;;;;;;;75.97;50.75;;;;;;;23.90;44.37;100577.78;4201581;28;20020;-69
2022/03/20 04:35:39;;;;;;;78.60;52.80;;;;;;;23.92;44.42;100586.72;4201903;28;20044;-70
2022/03/20 04:37:44;;;;;;;76.57;50.97;;;;;;;23.91;44.42;100599.84;4200567;28;20049;-70
2022/03/20 04:39:45;;;;;;;76.82;50.28;;;;;;;23.90;44.42;100594.56;4204521;28;20656;-70
2022/03/20 04:41:46;;;;;;;84.78;55.10;;;;;;;23.92;44.26;100609.91;4201233;28;20430;-69
2022/03/20 04:43:50;;;;;;;75.72;50.58;;;;;;;23.92;44.19;100618.28;4215402;28;20029;-70
2022/03/20 04:45:51;;;;;;;74.05;48.90;;;;;;;23.92;44.31;100618.28;4220063;28;20106;-70
2022/03/20 04:59:31;;;;;;;91.97;60.67;;;;;;;23.93;44.13;100624.69;4209210;28;20094;-70
2022/03/20 05:01:32;;;;;;;89.20;61.78;;;;;;;23.94;43.91;100620.75;4206514;28;20016;-70
2022/03/20 05:03:35;;;;;;;90.53;62.13;;;;;;;23.94;44.38;100637.53;4202005;28;20028;-70
2022/03/20 05:05:37;;;;;;;90.50;61.45;;;;;;;23.93;44.00;100658.22;4190429;28;20546;-70
2022/03/20 05:07:41;;;;;;;77.53;53.63;;;;;;;23.93;43.92;100669.41;4187124;28;20488;-70
2022/03/20 05:14:22;;;;;;;77.03;52.05;;;;;;;23.93;44.16;100688.97;4204356;28;20089;-71
2022/03/20 05:16:23;;;;;;;65.80;45.45;;;;;;;23.93;43.92;100686.19;4203724;28;20029;-71
2022/03/20 05:18:25;;;;;;;66.88;45.53;;;;;;;23.94;43.92;100687.81;4206245;28;20110;-69
2022/03/20 05:20:27;;;;;;;60.42;39.97;;;;;;;23.94;43.66;100690.63;4204736;28;20067;-70
2022/03/20 05:22:28;;;;;;;77.82;54.03;;;;;;;23.92;43.89;100690.13;4204430;28;20024;-70
2022/03/20 05:24:34;;;;;;;70.13;49.90;;;;;;;23.92;43.69;100690.94;4200561;28;20483;-70
2022/03/20 05:26:35;;;;;;;71.68;49.47;;;;;;;23.92;44.07;100687.31;4217452;28;20099;-70
2022/03/20 05:28:37;;;;;;;77.47;54.17;;;;;;;23.92;43.89;100678.94;4205032;28;20036;-71
2022/03/20 05:30:40;;;;;;;73.70;49.58;;;;;;;23.91;43.76;100694.84;4183901;28;20091;-68
2022/03/20 05:32:41;;;;;;;63.50;46.35;;;;;;;23.92;43.59;100702.13;4197199;28;20170;-70
2022/03/20 05:34:43;;;;;;;64.65;45.90;;;;;;;23.93;43.70;100714.13;4198260;28;20066;-70
2022/03/20 05:36:46;;;;;;;49.22;36.40;;;;;;;23.92;43.60;100712.47;4197624;28;20040;-70
2022/03/20 05:38:47;;;;;;;50.45;34.75;;;;;;;23.93;43.89;100719.72;4198637;28;20037;-69
2022/03/20 05:40:49;;;;;;;47.40;31.08;;;;;;;23.93;44.05;100726.13;4199645;28;20067;-70
2022/03/20 05:42:53;;;;;;;56.60;36.95;;;;;;;23.94;43.93;100726.94;4182370;28;20045;-71
2022/03/20 05:44:55;;;;;;;50.85;37.85;;;;;;;23.93;43.72;100714.13;4182310;28;20063;-69
2022/03/20 05:46:59;;;;;;;56.63;39.80;;;;;;;23.94;43.78;100721.38;4200157;28;20040;-71
2022/03/20 05:49:00;;;;;;;51.00;36.83;;;;;;;23.92;43.40;100723.66;4199558;28;20032;-70
2022/03/20 05:51:02;;;;;;;52.08;36.03;;;;;;;23.94;43.66;100729.75;4180264;28;20071;-69
2022/03/20 05:53:04;;;;;;;41.33;29.90;;;;;;;23.94;43.64;100732.53;4183694;28;20037;-71
2022/03/20 05:55:05;;;;;;;55.90;39.72;;;;;;;23.93;43.66;100730.88;4197610;28;20525;-70
2022/03/20 05:59:27;;;;;;;60.58;41.50;;;;;;;23.93;43.63;100720.53;4201148;28;20100;-70
2022/03/20 06:01:31;;;;;;;54.38;37.60;;;;;;;23.93;43.40;100719.72;4187047;28;20033;-69
2022/03/20 06:03:35;;;;;;;45.40;33.28;;;;;;;23.92;43.41;100723.66;4199056;28;20040;-72
2022/03/20 06:05:38;;;;;;;48.20;35.40;;;;;;;23.92;43.40;100710.50;4199210;28;20033;-70
2022/03/20 06:07:44;;;;;;;55.72;37.45;;;;;;;23.92;43.72;100718.88;4199161;28;20736;-70
2022/03/20 06:09:46;;;;;;;49.13;36.35;;;;;;;23.93;43.45;100716.91;4198960;28;20036;-70
2022/03/20 06:11:47;;;;;;;51.25;34.75;;;;;;;23.92;43.32;100716.09;4198978;28;20114;-68
2022/03/20 06:13:49;;;;;;;42.65;29.63;;;;;;;23.92;43.53;100712.47;4199226;28;20102;-70
2022/03/20 06:15:51;;;;;;;48.15;34.35;;;;;;;23.92;43.54;100726.44;4199678;28;20066;-70
2022/03/20 06:17:52;;;;;;;44.63;31.67;;;;;;;23.91;43.50;100727.56;4199948;28;20438;-71
2022/03/20 06:19:54;;;;;;;47.38;33.55;;;;;;;23.92;43.32;100729.25;4200028;28;20032;-69
2022/03/20 06:21:55;;;;;;;38.67;28.50;;;;;;;23.92;43.54;100734.81;4198895;28;20074;-70
2022/03/20 06:23:57;;;;;;;44.10;31.50;;;;;;;23.92;43.30;100734.81;4201282;28;20041;-71
2022/03/20 06:25:58;;;;;;;41.28;27.73;;;;;;;23.92;43.46;100729.25;4202228;28;20464;-70
2022/03/20 06:28:01;;;;;;;39.55;30.17;;;;;;;23.91;42.90;100731.19;4200824;28;20048;-69
2022/03/20 06:30:03;;;;;;;45.67;31.60;;;;;;;23.91;43.03;100730.34;4200421;28;20045;-69
2022/03/20 06:32:05;;;;;;;41.28;29.83;;;;;;;23.92;43.09;100718.06;4199400;28;20484;-71
2022/03/20 06:34:06;;;;;;;38.50;28.27;;;;;;;23.90;42.84;100709.97;4199519;28;20036;-69
2022/03/20 06:36:08;;;;;;;33.47;24.98;;;;;;;23.91;42.82;100724.75;4200215;28;20554;-69
2022/03/20 06:38:09;;;;;;;38.85;27.83;;;;;;;23.91;43.06;100721.97;4199436;28;20483;-71
2022/03/20 06:40:13;;;;;;;39.80;28.85;;;;;;;23.91;42.95;100727.56;4198909;28;20105;-68
2022/03/20 06:42:15;;;;;;;34.47;25.65;;;;;;;23.91;42.66;100724.75;4198803;28;20490;-69
2022/03/20 06:44:17;;;;;;;37.17;26.92;;;;;;;23.89;42.66;100713.06;4198123;28;20110;-69
2022/03/20 06:46:21;;;;;;;37.08;25.08;;;;;;;23.90;42.61;100709.97;4201856;28;20041;-69
2022/03/20 06:48:24;;;;;;;33.70;25.10;;;;;;;23.90;42.49;100714.72;4201653;28;20054;-70
2022/03/20 06:50:28;;;;;;;30.17;21.17;;;;;;;23.90;42.25;100726.72;4200789;28;20550;-70
2022/03/20 06:52:30;;;;;;;31.25;22.60;;;;;;;23.88;42.47;100729.00;4200635;28;20086;-69
2022/03/20 06:54:34;;;;;;;27.08;20.40;;;;;;;23.90;42.30;100735.13;4200314;28;20427;-69
2022/03/20 06:56:35;;;;;;;28.50;21.17;;;;;;;23.91;42.39;100744.31;4200260;28;20442;-70
2022/03/20 06:58:36;;;;;;;27.85;20.45;;;;;;;23.89;42.25;100741.03;4200835;28;20033;-69
2022/03/20 07:00:38;;;;;;;27.00;19.98;;;;;;;23.90;42.49;100748.25;4200844;28;20032;-69
2022/03/20 07:02:39;;;;;;;29.73;21.10;;;;;;;23.87;42.29;100743.28;4199794;28;20040;-69
2022/03/20 07:04:41;;;;;;;24.98;18.85;;;;;;;23.88;42.31;100750.53;4200920;28;20089;-70
2022/03/20 07:06:42;;;;;;;28.25;20.73;;;;;;;23.89;42.60;100743.81;4200943;28;20024;-69
2022/03/20 07:08:44;;;;;;;25.17;18.27;;;;;;;23.89;42.10;100752.19;4200527;28;20561;-69
2022/03/20 07:10:45;;;;;;;23.27;17.15;;;;;;;23.88;42.04;100751.38;4205628;28;20032;-69
2022/03/20 07:12:47;;;;;;;21.45;15.52;;;;;;;23.87;41.77;100760.91;4189938;28;20048;-69
2022/03/20 07:14:51;;;;;;;22.10;15.60;;;;;;;23.88;41.75;100772.91;4200631;28;20074;-70
2022/03/20 07:16:53;;;;;;;21.13;15.53;;;;;;;23.87;41.90;100772.06;4200597;28;20024;-69
2022/03/20 07:18:55;;;;;;;19.67;14.20;;;;;;;23.88;41.79;100778.50;4207672;28;20047;-69
2022/03/20 07:20:59;;;;;;;21.13;15.02;;;;;;;23.87;41.86;100782.41;4203565;28;20040;-69
2022/03/20 07:23:03;;;;;;;16.95;13.55;;;;;;;23.84;42.02;100772.66;4199097;28;20479;-70
2022/03/20 07:29:48;;;;;;;20.73;15.18;;;;;;;23.88;42.22;100761.72;4200520;28;20094;-67
2022/03/20 07:31:52;;;;;;;18.75;14.25;;;;;;;23.88;41.68;100775.69;4199869;28;20075;-69
2022/03/20 07:33:54;;;;;;;16.95;12.35;;;;;;;23.87;41.49;100776.81;4198587;28;20041;-69
2022/03/20 07:35:59;;;;;;;18.95;13.60;;;;;;;23.86;41.97;100775.97;4200078;28;20373;-69
2022/03/20 07:38:01;;;;;;;;;;;;;;;23.83;42.48;100766.25;4200416;28;20487;-69
2022/03/20 07:40:02;;;;;;;20.10;12.65;;;;;;;23.89;41.42;100758.63;4182172;28;19912;-70
2022/03/20 07:42:04;;;;;;;15.02;11.13;;;;;;;23.88;41.51;100751.38;4199098;28;20143;-70
2022/03/20 07:44:06;;;;;;;18.60;11.85;;;;;;;23.88;41.52;100761.72;4199496;28;20185;-70
2022/03/20 07:46:08;;;;;;;13.75;10.38;;;;;;;23.86;41.30;100763.97;4199889;28;20032;-70
2022/03/20 07:48:09;;;;;;;12.18;8.52;;;;;;;23.86;41.21;100758.38;4199549;28;20044;-70
2022/03/20 07:50:11;;;;;;;11.90;9.35;;;;;;;23.83;41.57;100755.09;4200922;28;20082;-71
2022/03/20 07:52:12;;;;;;;13.23;9.85;;;;;;;23.82;41.23;100747.84;4199896;28;20170;-70
2022/03/20 07:54:16;;;;;;;13.68;10.23;;;;;;;23.83;41.80;100748.66;4199805;28;20094;-71
2022/03/20 07:56:22;;;;;;;10.47;8.20;;;;;;;23.82;41.24;100752.56;4199360;28;20041;-70
2022/03/20 07:58:23;;;;;;;11.18;8.63;;;;;;;23.82;41.55;100759.03;4200115;28;20045;-69
2022/03/20 08:00:25;;;;;;;9.40;7.22;;;;;;;23.82;41.71;100764.59;4199927;28;20033;-70
2022/03/20 08:02:26;;;;;;;10.27;7.88;;;;;;;23.82;41.83;100772.13;4198757;28;20434;-70
2022/03/20 08:04:27;;;;;;;11.55;9.07;;;;;;;23.81;41.91;100762.91;4199344;28;20037;-69
2022/03/20 08:06:29;;;;;;;8.30;6.25;;;;;;;23.78;41.46;100763.56;4198959;28;20052;-70
2022/03/20 08:08:31;;;;;;;11.68;8.90;;;;;;;23.81;41.73;100771.31;4199266;28;20044;-69
2022/03/20 08:10:32;;;;;;;9.38;7.18;;;;;;;23.79;41.42;100770.78;4198523;28;20094;-70
2022/03/20 08:12:34;;;;;;;7.93;5.13;;;;;;;23.81;41.04;100782.47;4198795;28;20044;-70
2022/03/20 08:14:36;;;;;;;8.73;6.50;;;;;;;23.80;41.57;100772.44;4199639;28;20028;-70
2022/03/20 08:16:39;;;;;;;8.00;5.60;;;;;;;23.80;41.46;100789.22;4199631;28;20033;-71
2022/03/20 08:18:40;;;;;;;7.47;6.00;;;;;;;23.80;41.63;100786.41;4199068;28;20117;-69
2022/03/20 08:20:42;;;;;;;7.85;6.35;;;;;;;23.79;41.77;100787.56;4197400;28;20040;-70
2022/03/20 08:22:44;;;;;;;7.22;5.63;;;;;;;23.80;41.64;100789.22;4215291;28;20040;-70
2022/03/20 08:24:47;;;;;;;6.63;5.28;;;;;;;23.80;41.37;100794.81;4202938;28;20036;-70
2022/03/20 08:26:51;;;;;;;7.25;5.93;;;;;;;23.81;41.74;100795.63;4199055;28;20406;-69
2022/03/20 08:28:52;;;;;;;8.30;6.60;;;;;;;23.81;41.23;100796.44;4201261;28;20044;-69
2022/03/20 08:30:57;;;;;;;7.05;5.35;;;;;;;23.80;41.50;100789.22;4199839;28;20094;-69
2022/03/20 08:32:58;;;;;;;7.03;5.45;;;;;;;23.80;41.28;100789.22;4198560;28;20067;-70
2022/03/20 08:35:00;;;;;;;6.03;4.50;;;;;;;23.80;40.98;100789.22;4211924;28;20434;-69
2022/03/20 08:37:01;;;;;;;5.60;4.20;;;;;;;23.81;41.00;100792.84;4213533;28;20043;-70
2022/03/20 08:39:03;;;;;;;6.93;4.90;;;;;;;23.78;41.53;100785.91;4201863;28;20098;-70
2022/03/20 08:41:07;;;;;;;6.18;5.18;;;;;;;23.79;41.57;100787.56;4198740;28;20036;-70
2022/03/20 08:43:13;;;;;;;7.07;4.85;;;;;;;23.79;41.12;100789.53;4200186;28;20103;-70
2022/03/20 08:45:16;;;;;;;4.05;3.25;;;;;;;23.79;40.86;100793.16;4208163;28;20484;-70
2022/03/20 08:47:17;;;;;;;5.45;3.85;;;;;;;23.79;40.97;100795.13;4198316;28;20113;-70
2022/03/20 08:49:19;;;;;;;7.95;6.47;;;;;;;23.78;41.75;100788.69;4198592;28;20044;-70
2022/03/20 08:51:21;;;;;;;4.45;3.45;;;;;;;23.79;41.23;100795.13;4198616;28;20024;-69
2022/03/20 08:53:25;;;;;;;4.57;3.47;;;;;;;23.77;41.14;100800.97;4199860;28;20086;-69
2022/03/20 08:55:26;;;;;;;4.97;3.72;;;;;;;23.77;41.32;100803.78;4198866;28;20044;-70
2022/03/20 08:57:28;;;;;;;4.57;3.53;;;;;;;23.76;41.01;100807.72;4198972;28;20490;-69
2022/03/20 08:59:33;;;;;;;3.58;2.83;;;;;;;23.77;41.20;100814.97;4206335;28;20105;-69
2022/03/20 09:01:34;;;;;;;3.85;3.25;;;;;;;23.76;40.97;100802.13;4207662;28;20041;-69
2022/03/20 09:03:36;;;;;;;5.22;4.15;;;;;;;23.77;41.44;100794.56;4198598;28;20032;-69
2022/03/20 09:05:38;;;;;;;5.25;2.95;;;;;;;23.77;41.20;100806.56;4198763;28;20517;-69
2022/03/20 09:07:40;;;;;;;5.63;4.25;;;;;;;23.76;41.18;100810.50;4185945;28;20554;-69
2022/03/20 09:09:41;;;;;;;3.63;3.00;;;;;;;23.76;41.42;100804.09;4198324;28;20041;-69
2022/03/20 09:11:45;;;;;;;2.80;2.30;;;;;;;23.75;41.12;100810.81;4197892;28;20032;-69
2022/03/20 09:13:46;;;;;;;3.92;2.90;;;;;;;23.73;41.52;100810.28;4181230;28;20361;-69
2022/03/20 09:18:59;;;;;;;3.20;2.83;;;;;;;23.75;41.32;100820.03;4198212;28;20102;-69
2022/03/20 09:20:33;;;;;;;2.65;2.45;;;;;;;23.74;40.90;100823.97;4199142;28;20502;-69
2022/03/20 09:22:34;;;;;;;3.13;2.58;;;;;;;23.74;41.21;100812.78;4196823;28;20090;-69
2022/03/20 09:24:36;;;;;;;4.50;3.20;;;;;;;23.74;41.26;100815.59;4198541;28;20028;-69
2022/03/20 09:26:37;;;;;;;3.25;2.60;;;;;;;23.73;40.98;100816.72;4198186;28;20079;-69
2022/03/20 09:28:40;;;;;;;4.15;3.00;;;;;;;23.73;41.13;100815.88;4198209;28;20056;-69
2022/03/20 09:30:42;;;;;;;3.38;2.85;;;;;;;23.74;40.94;100823.97;4198290;28;20590;-69
2022/03/20 09:32:44;;;;;;;3.33;2.90;;;;;;;23.68;41.05;100813.97;4198016;28;20040;-69
2022/03/20 09:34:45;;;;;;;3.08;2.60;;;;;;;23.72;41.05;100826.22;4198507;28;20040;-70
2022/03/20 09:36:49;;;;;;;2.65;2.20;;;;;;;23.72;41.10;100819.81;4198491;28;20442;-70
2022/03/20 09:38:51;;;;;;;4.03;2.33;;;;;;;23.72;40.72;100820.63;4198390;28;20048;-70
2022/03/20 09:40:52;;;;;;;3.08;2.78;;;;;;;23.72;41.01;100826.22;4198581;28;20024;-70
2022/03/20 09:42:54;;;;;;;3.97;3.17;;;;;;;23.69;41.30;100821.25;4198023;28;20029;-70
2022/03/20 09:44:58;;;;;;;4.10;2.65;;;;;;;23.72;41.13;100836.56;4198254;28;20037;-69
2022/03/20 09:47:02;;;;;;;4.35;2.90;;;;;;;23.71;41.01;100829.31;4198638;28;20044;-70
2022/03/20 09:49:08;;;;;;;2.90;2.60;;;;;;;23.71;41.22;100824.56;4198921;28;20094;-71
2022/03/20 09:51:09;;;;;;;3.53;2.70;;;;;;;23.71;41.32;100824.56;4198657;28;20067;-70
2022/03/20 09:53:13;;;;;;;2.47;2.10;;;;;;;23.70;41.21;100820.13;4197918;28;20122;-70
2022/03/20 09:55:17;;;;;;;2.72;2.33;;;;;;;23.70;41.13;100817.31;4198062;28;20032;-70
2022/03/20 09:57:19;;;;;;;3.15;2.80;;;;;;;23.69;41.30;100821.25;4198210;28;20525;-69
2022/03/20 09:59:20;;;;;;;2.10;1.90;;;;;;;23.71;40.74;100829.31;4197519;28;20037;-69
2022/03/20 10:01:22;;;;;;;3.00;2.35;;;;;;;23.70;41.21;100822.91;4197881;28;20090;-70
2022/03/20 10:03:24;;;;;;;2.83;2.05;;;;;;;23.70;41.14;100816.50;4199267;28;20040;-69